Lantana, FL (33462)

4:56 PM EST on February 11, 2016 (GMT -0500)
Island Estates | | Change Station
CLOSE
Current Station
Personal Weather Station
Location: Lantana, FL
Elevation: 45 ft
Nearby Weather Stations

Elev 45 ft 26.57 °N, 80.08 °W | Updated 1 minute ago

Partly Cloudy
Partly Cloudy
64.4 °F
Feels Like 64.4 °F
N
4.0
Wind Variable Wind from North
Gusts 6.0 mph

Today
High -- | Low -- °F
--% Chance of Precip.
Yesterday
High -- | Low -- °F
Precip. -- in
Pressure 30.28 in
Visibility 10.0 miles
Clouds Scattered Clouds 7000 ft
Mostly Cloudy 25000 ft
Dew Point 44 °F
Humidity 48%
Rainfall 0.00 in
Snow Depth Not available.
6:59 AM 6:09 PM
Waxing Crescent, 14% visible
METAR KPBI 112153Z 04006KT 10SM SCT070 BKN250 19/03 A3028 RMK AO2 SLP252 T01890028 $
Pressure 30.28 in
Visibility 10.0 miles
Clouds Scattered Clouds 7000 ft
Mostly Cloudy 25000 ft
Dew Point 44 °F
Humidity 48%
Rainfall 0.00 in
Snow Depth Not available.
6:59 AM 6:09 PM
Waxing Crescent, 14% visible
METAR KPBI 112153Z 04006KT 10SM SCT070 BKN250 19/03 A3028 RMK AO2 SLP252 T01890028 $

10-Day Weather Forecast

Almanac

Astronomy

Feb. 11, 2016 Rise Set
Actual Time
Civil Twilight
Nautical Twilight
Astronomical Twilight
Moon
Length of Visible Light
Length of Day
Tomorrow will be .
, % of the Moon is Illuminated

Today's Extremes

State Highs State Lows

Community

WunderPhotos

Upload Photos

1,892,165 photos uploaded!

WunderBlog® & News

Nearby

Air Quality

  Air Quality AQ Index Pollutant
Not available.

Snow Depth

Station Depth Elevation

Earthquake Activity

City Distance Mag. Time & Date
Minimum magnitude displayed is 2.5.

Coastal Water Temperatures

Place Temperature

Stations

Nearby Weather Stations

Station Location Temp. Windchill Dew Point Humidity Wind Precip. Elev Updated Type
                   

Watches & Warnings

There are currently no watches in effect.